PROFILE

 METAR AND TAF INFORMATION
ADDS - METARS form results

(0518 UTC 09 August 2020)
http://aviationweather.gov/metar/data/
 
LIPQ 090450Z AUTO 04003KT 9999 NCD 20/17 Q1016
LIPQ 090420Z AUTO 08002KT 9999 NCD 19/17 Q1016
TAF LIPQ 082300Z 0900/0924 08008KT 9999 FEW050 

 AIRPORT MAP

 RUNWAY INFORMATION
Runway 09 Runway length 9843 ft Runway width 148 ft
Runway elevation 37 ft Runway displaced threshold 656 ft Runway heading 90
Runway 27 Runway length 9843 ft Runway width 148 ft
Runway elevation 36 ft Runway displaced threshold 0 ft Runway heading 270

 AIRPORT FREQUENCIES
Type APP Name APP Frequency 119.175 MHZ
Type TWR Name TWR Frequency 130.2 MHZ

 AIRPORT NEAR NAVIGATION AIDS
Type VOR-DME Name Ronchi Frequency 114200 KHZ
Type NDB Name Ronchi Frequency 396 KHZ